sensor_id;sensor_type;location;lat;lon;timestamp;P1;durP1;ratioP1;P2;durP2;ratioP2
42192;SDS011;52467;40.114;18.306;2023-03-20T00:01:59;37.50;;;23.67;;
42192;SDS011;52467;40.114;18.306;2023-03-20T00:04:27;36.22;;;21.80;;
42192;SDS011;52467;40.114;18.306;2023-03-20T00:06:55;41.78;;;23.42;;
42192;SDS011;52467;40.114;18.306;2023-03-20T00:09:23;40.70;;;21.83;;
42192;SDS011;52467;40.114;18.306;2023-03-20T00:11:52;36.70;;;20.67;;
42192;SDS011;52467;40.114;18.306;2023-03-20T00:14:21;34.10;;;20.57;;
42192;SDS011;52467;40.114;18.306;2023-03-20T00:16:50;35.20;;;20.98;;
42192;SDS011;52467;40.114;18.306;2023-03-20T00:19:19;35.70;;;21.07;;
42192;SDS011;52467;40.114;18.306;2023-03-20T00:21:51;34.13;;;21.92;;
42192;SDS011;52467;40.114;18.306;2023-03-20T00:24:20;39.53;;;22.33;;
42192;SDS011;52467;40.114;18.306;2023-03-20T00:26:49;40.85;;;23.38;;
42192;SDS011;52467;40.114;18.306;2023-03-20T00:31:49;41.03;;;23.40;;
42192;SDS011;52467;40.114;18.306;2023-03-20T00:34:17;39.90;;;22.70;;
42192;SDS011;52467;40.114;18.306;2023-03-20T00:36:46;39.83;;;22.77;;
42192;SDS011;52467;40.114;18.306;2023-03-20T00:39:13;36.45;;;22.48;;
42192;SDS011;52467;40.114;18.306;2023-03-20T00:41:41;38.20;;;22.08;;
42192;SDS011;52467;40.114;18.306;2023-03-20T00:44:38;40.35;;;23.23;;
42192;SDS011;52467;40.114;18.306;2023-03-20T00:47:17;36.83;;;21.83;;
42192;SDS011;52467;40.114;18.306;2023-03-20T00:49:47;38.50;;;21.77;;
42192;SDS011;52467;40.114;18.306;2023-03-20T00:52:16;33.03;;;21.63;;
42192;SDS011;52467;40.114;18.306;2023-03-20T00:54:44;39.13;;;21.77;;
42192;SDS011;52467;40.114;18.306;2023-03-20T00:57:15;34.35;;;22.98;;
42192;SDS011;52467;40.114;18.306;2023-03-20T00:59:55;38.73;;;24.10;;
42192;SDS011;52467;40.114;18.306;2023-03-20T01:02:34;37.50;;;23.63;;
42192;SDS011;52467;40.114;18.306;2023-03-20T01:05:01;41.08;;;25.05;;
42192;SDS011;52467;40.114;18.306;2023-03-20T01:07:31;41.40;;;26.15;;
42192;SDS011;52467;40.114;18.306;2023-03-20T01:10:01;39.22;;;26.08;;
42192;SDS011;52467;40.114;18.306;2023-03-20T01:12:29;42.25;;;27.02;;
42192;SDS011;52467;40.114;18.306;2023-03-20T01:14:57;39.25;;;24.98;;
42192;SDS011;52467;40.114;18.306;2023-03-20T01:17:26;42.17;;;26.47;;
42192;SDS011;52467;40.114;18.306;2023-03-20T01:19:54;41.17;;;26.00;;
42192;SDS011;52467;40.114;18.306;2023-03-20T01:22:22;42.03;;;24.57;;
42192;SDS011;52467;40.114;18.306;2023-03-20T01:24:50;43.28;;;26.50;;
42192;SDS011;52467;40.114;18.306;2023-03-20T01:27:18;42.83;;;26.23;;
42192;SDS011;52467;40.114;18.306;2023-03-20T01:29:46;41.88;;;25.15;;
42192;SDS011;52467;40.114;18.306;2023-03-20T01:32:15;42.83;;;25.50;;
42192;SDS011;52467;40.114;18.306;2023-03-20T01:34:46;40.60;;;25.38;;
42192;SDS011;52467;40.114;18.306;2023-03-20T01:37:21;39.75;;;25.52;;
42192;SDS011;52467;40.114;18.306;2023-03-20T01:39:56;39.88;;;25.33;;
42192;SDS011;52467;40.114;18.306;2023-03-20T01:42:24;39.30;;;24.40;;
42192;SDS011;52467;40.114;18.306;2023-03-20T01:44:52;42.83;;;25.30;;
42192;SDS011;52467;40.114;18.306;2023-03-20T01:47:21;39.63;;;24.45;;
42192;SDS011;52467;40.114;18.306;2023-03-20T01:52:49;38.60;;;23.90;;
42192;SDS011;52467;40.114;18.306;2023-03-20T01:55:20;39.40;;;24.20;;
42192;SDS011;52467;40.114;18.306;2023-03-20T01:57:55;39.40;;;24.50;;
42192;SDS011;52467;40.114;18.306;2023-03-20T02:00:24;39.50;;;23.60;;
42192;SDS011;52467;40.114;18.306;2023-03-20T02:02:51;36.90;;;24.65;;
42192;SDS011;52467;40.114;18.306;2023-03-20T02:05:49;37.22;;;23.70;;
42192;SDS011;52467;40.114;18.306;2023-03-20T02:08:22;40.92;;;24.83;;
42192;SDS011;52467;40.114;18.306;2023-03-20T02:10:53;37.85;;;25.00;;
42192;SDS011;52467;40.114;18.306;2023-03-20T02:13:26;43.73;;;25.90;;
42192;SDS011;52467;40.114;18.306;2023-03-20T02:15:57;38.35;;;24.20;;
42192;SDS011;52467;40.114;18.306;2023-03-20T02:18:45;40.25;;;23.83;;
42192;SDS011;52467;40.114;18.306;2023-03-20T02:44:52;34.93;;;21.43;;
42192;SDS011;52467;40.114;18.306;2023-03-20T02:47:41;36.03;;;20.90;;
42192;SDS011;52467;40.114;18.306;2023-03-20T02:59:19;29.93;;;18.27;;
42192;SDS011;52467;40.114;18.306;2023-03-20T03:05:03;31.45;;;18.67;;
42192;SDS011;52467;40.114;18.306;2023-03-20T03:07:35;28.67;;;18.33;;
42192;SDS011;52467;40.114;18.306;2023-03-20T03:10:08;27.80;;;18.23;;
42192;SDS011;52467;40.114;18.306;2023-03-20T03:12:39;28.15;;;17.50;;
42192;SDS011;52467;40.114;18.306;2023-03-20T03:15:19;30.17;;;18.47;;
42192;SDS011;52467;40.114;18.306;2023-03-20T03:17:48;26.80;;;17.20;;
42192;SDS011;52467;40.114;18.306;2023-03-20T03:20:22;26.80;;;16.52;;
42192;SDS011;52467;40.114;18.306;2023-03-20T03:22:59;24.52;;;16.67;;
42192;SDS011;52467;40.114;18.306;2023-03-20T03:25:29;26.85;;;16.63;;
42192;SDS011;52467;40.114;18.306;2023-03-20T03:28:02;24.27;;;16.63;;
42192;SDS011;52467;40.114;18.306;2023-03-20T03:30:39;25.92;;;15.43;;
42192;SDS011;52467;40.114;18.306;2023-03-20T03:38:49;23.83;;;16.10;;
42192;SDS011;52467;40.114;18.306;2023-03-20T03:41:44;23.23;;;15.15;;
42192;SDS011;52467;40.114;18.306;2023-03-20T03:44:22;25.13;;;15.07;;
42192;SDS011;52467;40.114;18.306;2023-03-20T03:46:54;23.47;;;14.10;;
42192;SDS011;52467;40.114;18.306;2023-03-20T03:49:28;23.27;;;14.57;;
42192;SDS011;52467;40.114;18.306;2023-03-20T03:52:00;22.55;;;13.15;;
42192;SDS011;52467;40.114;18.306;2023-03-20T03:54:38;19.17;;;12.90;;
42192;SDS011;52467;40.114;18.306;2023-03-20T03:57:39;22.67;;;13.55;;
42192;SDS011;52467;40.114;18.306;2023-03-20T04:00:13;21.55;;;13.50;;
42192;SDS011;52467;40.114;18.306;2023-03-20T04:02:44;21.70;;;13.30;;
42192;SDS011;52467;40.114;18.306;2023-03-20T04:05:14;22.02;;;14.13;;
42192;SDS011;52467;40.114;18.306;2023-03-20T04:07:46;22.92;;;12.63;;
42192;SDS011;52467;40.114;18.306;2023-03-20T04:10:16;21.20;;;13.00;;
42192;SDS011;52467;40.114;18.306;2023-03-20T04:12:43;21.63;;;12.70;;
42192;SDS011;52467;40.114;18.306;2023-03-20T04:15:11;22.88;;;13.15;;
42192;SDS011;52467;40.114;18.306;2023-03-20T04:17:40;21.70;;;12.45;;
42192;SDS011;52467;40.114;18.306;2023-03-20T04:20:10;21.38;;;13.18;;
42192;SDS011;52467;40.114;18.306;2023-03-20T04:22:38;19.17;;;12.55;;
42192;SDS011;52467;40.114;18.306;2023-03-20T04:25:15;20.20;;;11.57;;
42192;SDS011;52467;40.114;18.306;2023-03-20T04:27:50;19.10;;;11.57;;
42192;SDS011;52467;40.114;18.306;2023-03-20T04:30:50;20.75;;;11.70;;
42192;SDS011;52467;40.114;18.306;2023-03-20T04:33:57;18.58;;;11.07;;
42192;SDS011;52467;40.114;18.306;2023-03-20T04:36:53;24.63;;;11.90;;
42192;SDS011;52467;40.114;18.306;2023-03-20T04:39:26;20.40;;;11.52;;
42192;SDS011;52467;40.114;18.306;2023-03-20T04:41:54;19.23;;;11.50;;
42192;SDS011;52467;40.114;18.306;2023-03-20T04:44:21;18.52;;;11.50;;
42192;SDS011;52467;40.114;18.306;2023-03-20T04:46:49;21.83;;;11.80;;
42192;SDS011;52467;40.114;18.306;2023-03-20T04:49:16;18.70;;;10.82;;
42192;SDS011;52467;40.114;18.306;2023-03-20T04:51:44;20.15;;;11.00;;
42192;SDS011;52467;40.114;18.306;2023-03-20T04:54:14;17.83;;;11.18;;
42192;SDS011;52467;40.114;18.306;2023-03-20T04:56:42;21.17;;;11.93;;
42192;SDS011;52467;40.114;18.306;2023-03-20T04:59:13;17.98;;;11.82;;
42192;SDS011;52467;40.114;18.306;2023-03-20T05:01:41;22.03;;;12.17;;
42192;SDS011;52467;40.114;18.306;2023-03-20T05:04:09;20.10;;;12.38;;
42192;SDS011;52467;40.114;18.306;2023-03-20T05:06:38;18.05;;;12.23;;
42192;SDS011;52467;40.114;18.306;2023-03-20T05:09:06;18.52;;;12.07;;
42192;SDS011;52467;40.114;18.306;2023-03-20T05:11:35;21.75;;;12.90;;
42192;SDS011;52467;40.114;18.306;2023-03-20T05:14:17;16.95;;;12.15;;
42192;SDS011;52467;40.114;18.306;2023-03-20T05:16:55;19.00;;;12.35;;
42192;SDS011;52467;40.114;18.306;2023-03-20T05:19:38;20.17;;;12.43;;
42192;SDS011;52467;40.114;18.306;2023-03-20T05:22:32;23.55;;;12.85;;
42192;SDS011;52467;40.114;18.306;2023-03-20T05:25:11;18.25;;;12.38;;
42192;SDS011;52467;40.114;18.306;2023-03-20T05:28:07;21.10;;;12.30;;
42192;SDS011;52467;40.114;18.306;2023-03-20T05:30:48;24.85;;;12.32;;
42192;SDS011;52467;40.114;18.306;2023-03-20T05:33:29;20.65;;;13.13;;
42192;SDS011;52467;40.114;18.306;2023-03-20T05:36:07;17.63;;;12.52;;
42192;SDS011;52467;40.114;18.306;2023-03-20T05:38:54;22.60;;;12.47;;
42192;SDS011;52467;40.114;18.306;2023-03-20T05:41:24;17.73;;;12.32;;
42192;SDS011;52467;40.114;18.306;2023-03-20T05:44:10;19.23;;;12.00;;
42192;SDS011;52467;40.114;18.306;2023-03-20T05:46:52;22.37;;;12.97;;
42192;SDS011;52467;40.114;18.306;2023-03-20T05:49:55;18.90;;;12.23;;
42192;SDS011;52467;40.114;18.306;2023-03-20T05:52:45;23.52;;;12.40;;
42192;SDS011;52467;40.114;18.306;2023-03-20T05:55:24;19.13;;;11.85;;
42192;SDS011;52467;40.114;18.306;2023-03-20T05:58:01;19.02;;;12.52;;
42192;SDS011;52467;40.114;18.306;2023-03-20T06:00:48;21.08;;;11.70;;
42192;SDS011;52467;40.114;18.306;2023-03-20T06:03:36;17.80;;;11.88;;
42192;SDS011;52467;40.114;18.306;2023-03-20T06:06:10;20.42;;;11.98;;
42192;SDS011;52467;40.114;18.306;2023-03-20T06:08:39;17.60;;;11.80;;
42192;SDS011;52467;40.114;18.306;2023-03-20T06:11:07;21.35;;;12.02;;
42192;SDS011;52467;40.114;18.306;2023-03-20T06:13:36;18.50;;;12.20;;
42192;SDS011;52467;40.114;18.306;2023-03-20T06:16:04;16.92;;;11.45;;
42192;SDS011;52467;40.114;18.306;2023-03-20T06:18:34;20.10;;;11.27;;
42192;SDS011;52467;40.114;18.306;2023-03-20T06:21:01;15.68;;;10.05;;
42192;SDS011;52467;40.114;18.306;2023-03-20T06:23:31;16.90;;;10.68;;
42192;SDS011;52467;40.114;18.306;2023-03-20T06:26:00;17.90;;;9.73;;
42192;SDS011;52467;40.114;18.306;2023-03-20T06:28:32;15.27;;;9.60;;
42192;SDS011;52467;40.114;18.306;2023-03-20T06:31:05;17.70;;;9.87;;
42192;SDS011;52467;40.114;18.306;2023-03-20T06:33:33;15.75;;;10.02;;
42192;SDS011;52467;40.114;18.306;2023-03-20T06:36:01;14.50;;;9.68;;
42192;SDS011;52467;40.114;18.306;2023-03-20T06:38:30;15.20;;;9.70;;
42192;SDS011;52467;40.114;18.306;2023-03-20T06:41:03;13.25;;;8.93;;
42192;SDS011;52467;40.114;18.306;2023-03-20T06:43:31;13.57;;;8.75;;
42192;SDS011;52467;40.114;18.306;2023-03-20T06:45:58;15.40;;;8.18;;
42192;SDS011;52467;40.114;18.306;2023-03-20T06:48:28;11.48;;;7.25;;
42192;SDS011;52467;40.114;18.306;2023-03-20T06:50:56;11.20;;;6.82;;
42192;SDS011;52467;40.114;18.306;2023-03-20T06:53:30;11.23;;;7.40;;
42192;SDS011;52467;40.114;18.306;2023-03-20T06:56:06;10.30;;;6.20;;
42192;SDS011;52467;40.114;18.306;2023-03-20T06:58:38;9.63;;;5.30;;
42192;SDS011;52467;40.114;18.306;2023-03-20T07:01:10;9.45;;;5.20;;
42192;SDS011;52467;40.114;18.306;2023-03-20T07:03:39;7.47;;;4.70;;
42192;SDS011;52467;40.114;18.306;2023-03-20T07:06:08;7.18;;;4.53;;
42192;SDS011;52467;40.114;18.306;2023-03-20T07:08:38;8.30;;;4.72;;
42192;SDS011;52467;40.114;18.306;2023-03-20T07:11:06;10.57;;;4.60;;
42192;SDS011;52467;40.114;18.306;2023-03-20T07:13:35;6.80;;;4.65;;
42192;SDS011;52467;40.114;18.306;2023-03-20T07:16:12;10.30;;;4.97;;
42192;SDS011;52467;40.114;18.306;2023-03-20T07:18:41;7.70;;;4.95;;
42192;SDS011;52467;40.114;18.306;2023-03-20T07:21:09;8.10;;;4.60;;
42192;SDS011;52467;40.114;18.306;2023-03-20T07:23:40;6.35;;;4.63;;
42192;SDS011;52467;40.114;18.306;2023-03-20T07:26:07;7.20;;;4.35;;
42192;SDS011;52467;40.114;18.306;2023-03-20T07:28:35;5.10;;;4.32;;
42192;SDS011;52467;40.114;18.306;2023-03-20T07:31:19;7.25;;;4.55;;
42192;SDS011;52467;40.114;18.306;2023-03-20T07:33:59;7.47;;;4.60;;
42192;SDS011;52467;40.114;18.306;2023-03-20T07:36:27;7.57;;;4.78;;
42192;SDS011;52467;40.114;18.306;2023-03-20T07:38:54;10.27;;;4.60;;
42192;SDS011;52467;40.114;18.306;2023-03-20T07:41:22;9.87;;;4.50;;
42192;SDS011;52467;40.114;18.306;2023-03-20T07:44:10;7.30;;;4.43;;
42192;SDS011;52467;40.114;18.306;2023-03-20T07:46:50;6.35;;;3.72;;
42192;SDS011;52467;40.114;18.306;2023-03-20T07:49:21;9.63;;;4.10;;
42192;SDS011;52467;40.114;18.306;2023-03-20T07:51:48;7.45;;;3.97;;
42192;SDS011;52467;40.114;18.306;2023-03-20T07:54:16;5.47;;;3.88;;
42192;SDS011;52467;40.114;18.306;2023-03-20T07:56:44;7.72;;;4.18;;
42192;SDS011;52467;40.114;18.306;2023-03-20T07:59:12;5.50;;;3.70;;
42192;SDS011;52467;40.114;18.306;2023-03-20T08:01:40;6.50;;;3.25;;
42192;SDS011;52467;40.114;18.306;2023-03-20T08:04:07;8.50;;;3.63;;
42192;SDS011;52467;40.114;18.306;2023-03-20T08:06:35;6.28;;;3.67;;
42192;SDS011;52467;40.114;18.306;2023-03-20T08:09:05;7.22;;;4.00;;
42192;SDS011;52467;40.114;18.306;2023-03-20T08:11:32;6.00;;;3.95;;
42192;SDS011;52467;40.114;18.306;2023-03-20T08:14:00;7.10;;;3.75;;
42192;SDS011;52467;40.114;18.306;2023-03-20T08:16:28;4.78;;;3.20;;
42192;SDS011;52467;40.114;18.306;2023-03-20T08:18:55;6.67;;;3.70;;
42192;SDS011;52467;40.114;18.306;2023-03-20T08:21:27;6.65;;;3.60;;
42192;SDS011;52467;40.114;18.306;2023-03-20T08:23:55;6.50;;;4.00;;
42192;SDS011;52467;40.114;18.306;2023-03-20T08:26:22;6.13;;;3.70;;
42192;SDS011;52467;40.114;18.306;2023-03-20T08:28:50;5.63;;;3.45;;
42192;SDS011;52467;40.114;18.306;2023-03-20T08:31:18;7.60;;;2.97;;
42192;SDS011;52467;40.114;18.306;2023-03-20T08:33:46;5.93;;;3.30;;
42192;SDS011;52467;40.114;18.306;2023-03-20T08:36:13;7.13;;;3.13;;
42192;SDS011;52467;40.114;18.306;2023-03-20T08:38:41;8.60;;;3.35;;
42192;SDS011;52467;40.114;18.306;2023-03-20T08:41:09;6.35;;;3.67;;
42192;SDS011;52467;40.114;18.306;2023-03-20T08:43:36;5.82;;;3.35;;
42192;SDS011;52467;40.114;18.306;2023-03-20T08:46:05;4.07;;;2.90;;
42192;SDS011;52467;40.114;18.306;2023-03-20T08:48:33;4.63;;;2.80;;
42192;SDS011;52467;40.114;18.306;2023-03-20T08:51:02;7.43;;;2.85;;
42192;SDS011;52467;40.114;18.306;2023-03-20T08:53:29;7.72;;;3.10;;
42192;SDS011;52467;40.114;18.306;2023-03-20T08:55:56;7.07;;;2.70;;
42192;SDS011;52467;40.114;18.306;2023-03-20T08:58:24;5.87;;;3.50;;
42192;SDS011;52467;40.114;18.306;2023-03-20T09:00:51;4.47;;;2.83;;
42192;SDS011;52467;40.114;18.306;2023-03-20T09:03:19;5.55;;;3.00;;
42192;SDS011;52467;40.114;18.306;2023-03-20T09:05:48;5.43;;;2.75;;
42192;SDS011;52467;40.114;18.306;2023-03-20T09:08:17;6.32;;;2.72;;
42192;SDS011;52467;40.114;18.306;2023-03-20T09:10:46;5.07;;;2.45;;
42192;SDS011;52467;40.114;18.306;2023-03-20T09:13:17;6.75;;;2.33;;
42192;SDS011;52467;40.114;18.306;2023-03-20T09:15:53;4.07;;;2.25;;
42192;SDS011;52467;40.114;18.306;2023-03-20T09:18:21;4.28;;;2.30;;
42192;SDS011;52467;40.114;18.306;2023-03-20T09:20:48;3.92;;;2.22;;
42192;SDS011;52467;40.114;18.306;2023-03-20T09:23:16;6.47;;;2.63;;
42192;SDS011;52467;40.114;18.306;2023-03-20T09:25:45;7.63;;;2.10;;
42192;SDS011;52467;40.114;18.306;2023-03-20T09:28:13;4.70;;;2.17;;
42192;SDS011;52467;40.114;18.306;2023-03-20T09:30:40;11.15;;;2.47;;
42192;SDS011;52467;40.114;18.306;2023-03-20T09:33:09;8.10;;;2.73;;
42192;SDS011;52467;40.114;18.306;2023-03-20T09:35:37;4.57;;;2.20;;
42192;SDS011;52467;40.114;18.306;2023-03-20T09:38:04;10.57;;;2.70;;
42192;SDS011;52467;40.114;18.306;2023-03-20T09:40:37;4.38;;;1.83;;
42192;SDS011;52467;40.114;18.306;2023-03-20T09:43:37;4.88;;;2.17;;
42192;SDS011;52467;40.114;18.306;2023-03-20T09:52:06;5.27;;;2.40;;
42192;SDS011;52467;40.114;18.306;2023-03-20T09:54:49;7.60;;;2.23;;
42192;SDS011;52467;40.114;18.306;2023-03-20T09:57:21;3.30;;;2.03;;
42192;SDS011;52467;40.114;18.306;2023-03-20T09:59:56;3.17;;;2.40;;
42192;SDS011;52467;40.114;18.306;2023-03-20T10:02:35;5.40;;;2.28;;
42192;SDS011;52467;40.114;18.306;2023-03-20T10:05:10;3.78;;;2.17;;
42192;SDS011;52467;40.114;18.306;2023-03-20T10:07:44;5.43;;;2.60;;
42192;SDS011;52467;40.114;18.306;2023-03-20T10:10:12;4.70;;;2.78;;
42192;SDS011;52467;40.114;18.306;2023-03-20T10:12:46;5.70;;;2.40;;
42192;SDS011;52467;40.114;18.306;2023-03-20T10:18:50;4.97;;;2.30;;
42192;SDS011;52467;40.114;18.306;2023-03-20T10:21:31;4.37;;;1.87;;
42192;SDS011;52467;40.114;18.306;2023-03-20T10:25:15;3.47;;;1.97;;
42192;SDS011;52467;40.114;18.306;2023-03-20T10:32:42;4.18;;;2.00;;
42192;SDS011;52467;40.114;18.306;2023-03-20T10:38:06;6.60;;;2.00;;
42192;SDS011;52467;40.114;18.306;2023-03-20T10:40:57;5.05;;;2.22;;
42192;SDS011;52467;40.114;18.306;2023-03-20T10:43:31;4.72;;;1.90;;
42192;SDS011;52467;40.114;18.306;2023-03-20T10:46:04;3.25;;;1.70;;
42192;SDS011;52467;40.114;18.306;2023-03-20T10:49:02;3.15;;;2.17;;
42192;SDS011;52467;40.114;18.306;2023-03-20T10:51:40;4.60;;;1.92;;
42192;SDS011;52467;40.114;18.306;2023-03-20T10:54:36;2.47;;;1.88;;
42192;SDS011;52467;40.114;18.306;2023-03-20T10:57:12;4.70;;;1.80;;
42192;SDS011;52467;40.114;18.306;2023-03-20T10:59:53;4.07;;;2.40;;
42192;SDS011;52467;40.114;18.306;2023-03-20T11:02:31;4.20;;;1.45;;
42192;SDS011;52467;40.114;18.306;2023-03-20T11:04:59;5.10;;;2.00;;
42192;SDS011;52467;40.114;18.306;2023-03-20T11:07:33;5.23;;;1.90;;
42192;SDS011;52467;40.114;18.306;2023-03-20T11:12:45;5.38;;;2.05;;
42192;SDS011;52467;40.114;18.306;2023-03-20T11:18:05;3.33;;;2.08;;
42192;SDS011;52467;40.114;18.306;2023-03-20T11:20:44;6.75;;;2.25;;
42192;SDS011;52467;40.114;18.306;2023-03-20T11:23:14;4.38;;;2.00;;
42192;SDS011;52467;40.114;18.306;2023-03-20T11:25:45;5.38;;;2.10;;
42192;SDS011;52467;40.114;18.306;2023-03-20T11:34:30;7.55;;;1.90;;
42192;SDS011;52467;40.114;18.306;2023-03-20T11:36:37;5.05;;;2.20;;
42192;SDS011;52467;40.114;18.306;2023-03-20T11:39:22;6.65;;;2.10;;
42192;SDS011;52467;40.114;18.306;2023-03-20T11:41:55;4.72;;;1.67;;
42192;SDS011;52467;40.114;18.306;2023-03-20T11:47:00;4.85;;;2.10;;
42192;SDS011;52467;40.114;18.306;2023-03-20T11:49:49;4.30;;;1.67;;
42192;SDS011;52467;40.114;18.306;2023-03-20T11:52:23;3.60;;;1.55;;
42192;SDS011;52467;40.114;18.306;2023-03-20T11:54:54;4.20;;;1.40;;
42192;SDS011;52467;40.114;18.306;2023-03-20T12:06:06;3.50;;;1.30;;
42192;SDS011;52467;40.114;18.306;2023-03-20T12:08:40;2.58;;;1.27;;
42192;SDS011;52467;40.114;18.306;2023-03-20T12:20:21;4.32;;;1.50;;
42192;SDS011;52467;40.114;18.306;2023-03-20T12:31:03;2.87;;;1.30;;
42192;SDS011;52467;40.114;18.306;2023-03-20T12:36:28;4.75;;;1.30;;
42192;SDS011;52467;40.114;18.306;2023-03-20T12:39:03;3.10;;;1.17;;
42192;SDS011;52467;40.114;18.306;2023-03-20T12:47:37;2.97;;;1.50;;
42192;SDS011;52467;40.114;18.306;2023-03-20T12:50:18;4.10;;;1.45;;
42192;SDS011;52467;40.114;18.306;2023-03-20T12:58:38;2.30;;;1.60;;
42192;SDS011;52467;40.114;18.306;2023-03-20T13:16:47;2.03;;;1.50;;
42192;SDS011;52467;40.114;18.306;2023-03-20T13:19:35;3.13;;;1.30;;
42192;SDS011;52467;40.114;18.306;2023-03-20T13:22:22;5.00;;;1.85;;
42192;SDS011;52467;40.114;18.306;2023-03-20T13:25:00;3.67;;;1.40;;
42192;SDS011;52467;40.114;18.306;2023-03-20T13:27:48;4.22;;;1.70;;
42192;SDS011;52467;40.114;18.306;2023-03-20T13:30:33;6.30;;;1.90;;
42192;SDS011;52467;40.114;18.306;2023-03-20T13:38:28;3.38;;;1.80;;
42192;SDS011;52467;40.114;18.306;2023-03-20T13:40:59;4.43;;;2.28;;
42192;SDS011;52467;40.114;18.306;2023-03-20T13:43:51;3.88;;;1.98;;
42192;SDS011;52467;40.114;18.306;2023-03-20T13:49:09;3.92;;;1.75;;
42192;SDS011;52467;40.114;18.306;2023-03-20T13:51:43;6.38;;;1.92;;
42192;SDS011;52467;40.114;18.306;2023-03-20T13:54:37;2.83;;;1.60;;
42192;SDS011;52467;40.114;18.306;2023-03-20T14:05:38;4.43;;;1.60;;
42192;SDS011;52467;40.114;18.306;2023-03-20T14:11:07;5.85;;;1.77;;
42192;SDS011;52467;40.114;18.306;2023-03-20T14:13:48;3.85;;;1.73;;
42192;SDS011;52467;40.114;18.306;2023-03-20T14:16:29;3.92;;;1.67;;
42192;SDS011;52467;40.114;18.306;2023-03-20T14:21:49;5.05;;;1.90;;
42192;SDS011;52467;40.114;18.306;2023-03-20T14:24:19;2.72;;;1.60;;
42192;SDS011;52467;40.114;18.306;2023-03-20T14:26:54;7.10;;;2.10;;
42192;SDS011;52467;40.114;18.306;2023-03-20T14:29:34;6.55;;;1.90;;
42192;SDS011;52467;40.114;18.306;2023-03-20T14:34:42;4.95;;;1.70;;
42192;SDS011;52467;40.114;18.306;2023-03-20T14:42:45;5.18;;;1.50;;
42192;SDS011;52467;40.114;18.306;2023-03-20T15:01:17;3.95;;;1.75;;
42192;SDS011;52467;40.114;18.306;2023-03-20T15:03:57;3.35;;;1.73;;
42192;SDS011;52467;40.114;18.306;2023-03-20T15:06:27;3.33;;;1.67;;
42192;SDS011;52467;40.114;18.306;2023-03-20T15:09:09;4.85;;;1.73;;
42192;SDS011;52467;40.114;18.306;2023-03-20T15:11:37;4.00;;;2.00;;
42192;SDS011;52467;40.114;18.306;2023-03-20T15:14:05;4.32;;;1.90;;
42192;SDS011;52467;40.114;18.306;2023-03-20T15:16:34;3.40;;;1.92;;
42192;SDS011;52467;40.114;18.306;2023-03-20T15:19:05;3.97;;;1.83;;
42192;SDS011;52467;40.114;18.306;2023-03-20T15:21:45;5.72;;;1.92;;
42192;SDS011;52467;40.114;18.306;2023-03-20T15:24:16;3.60;;;2.60;;
42192;SDS011;52467;40.114;18.306;2023-03-20T15:26:58;5.07;;;2.10;;
42192;SDS011;52467;40.114;18.306;2023-03-20T15:29:26;3.33;;;2.50;;
42192;SDS011;52467;40.114;18.306;2023-03-20T15:31:56;4.22;;;2.22;;
42192;SDS011;52467;40.114;18.306;2023-03-20T15:34:38;6.70;;;2.30;;
42192;SDS011;52467;40.114;18.306;2023-03-20T15:37:08;5.95;;;2.53;;
42192;SDS011;52467;40.114;18.306;2023-03-20T15:39:46;5.50;;;2.83;;
42192;SDS011;52467;40.114;18.306;2023-03-20T15:42:19;4.95;;;2.70;;
42192;SDS011;52467;40.114;18.306;2023-03-20T15:44:48;4.13;;;2.05;;
42192;SDS011;52467;40.114;18.306;2023-03-20T15:47:18;4.07;;;1.80;;
42192;SDS011;52467;40.114;18.306;2023-03-20T15:49:49;4.67;;;1.53;;
42192;SDS011;52467;40.114;18.306;2023-03-20T15:52:32;4.00;;;2.10;;
42192;SDS011;52467;40.114;18.306;2023-03-20T15:55:02;4.22;;;1.88;;
42192;SDS011;52467;40.114;18.306;2023-03-20T15:57:35;7.90;;;2.15;;
42192;SDS011;52467;40.114;18.306;2023-03-20T16:00:05;3.90;;;2.45;;
42192;SDS011;52467;40.114;18.306;2023-03-20T16:02:35;4.43;;;2.60;;
42192;SDS011;52467;40.114;18.306;2023-03-20T16:05:03;4.60;;;2.70;;
42192;SDS011;52467;40.114;18.306;2023-03-20T16:07:31;6.03;;;2.95;;
42192;SDS011;52467;40.114;18.306;2023-03-20T16:09:59;9.65;;;4.75;;
42192;SDS011;52467;40.114;18.306;2023-03-20T16:12:26;9.38;;;5.07;;
42192;SDS011;52467;40.114;18.306;2023-03-20T16:14:53;13.77;;;5.10;;
42192;SDS011;52467;40.114;18.306;2023-03-20T16:17:22;12.35;;;4.93;;
42192;SDS011;52467;40.114;18.306;2023-03-20T16:19:50;11.70;;;5.50;;
42192;SDS011;52467;40.114;18.306;2023-03-20T16:22:24;11.70;;;4.22;;
42192;SDS011;52467;40.114;18.306;2023-03-20T16:24:54;7.85;;;3.20;;
42192;SDS011;52467;40.114;18.306;2023-03-20T16:27:33;4.50;;;2.25;;
42192;SDS011;52467;40.114;18.306;2023-03-20T16:30:05;5.25;;;2.42;;
42192;SDS011;52467;40.114;18.306;2023-03-20T16:32:36;2.83;;;2.20;;
42192;SDS011;52467;40.114;18.306;2023-03-20T16:35:26;7.35;;;2.38;;
42192;SDS011;52467;40.114;18.306;2023-03-20T16:38:12;7.88;;;2.50;;
42192;SDS011;52467;40.114;18.306;2023-03-20T16:40:52;4.67;;;2.43;;
42192;SDS011;52467;40.114;18.306;2023-03-20T16:43:30;4.28;;;2.63;;
42192;SDS011;52467;40.114;18.306;2023-03-20T16:46:02;6.95;;;2.88;;
42192;SDS011;52467;40.114;18.306;2023-03-20T16:52:41;4.67;;;2.80;;
42192;SDS011;52467;40.114;18.306;2023-03-20T16:55:16;4.70;;;2.78;;
42192;SDS011;52467;40.114;18.306;2023-03-20T16:57:48;5.93;;;2.80;;
42192;SDS011;52467;40.114;18.306;2023-03-20T17:00:19;7.15;;;2.90;;
42192;SDS011;52467;40.114;18.306;2023-03-20T17:03:04;7.10;;;2.80;;
42192;SDS011;52467;40.114;18.306;2023-03-20T17:08:22;11.38;;;3.60;;
42192;SDS011;52467;40.114;18.306;2023-03-20T17:10:57;5.47;;;3.03;;
42192;SDS011;52467;40.114;18.306;2023-03-20T17:13:26;9.15;;;3.58;;
42192;SDS011;52467;40.114;18.306;2023-03-20T17:15:53;6.65;;;4.10;;
42192;SDS011;52467;40.114;18.306;2023-03-20T17:18:21;10.00;;;4.70;;
42192;SDS011;52467;40.114;18.306;2023-03-20T17:20:48;12.23;;;5.68;;
42192;SDS011;52467;40.114;18.306;2023-03-20T17:23:18;9.07;;;5.20;;
42192;SDS011;52467;40.114;18.306;2023-03-20T17:25:47;10.45;;;5.10;;
42192;SDS011;52467;40.114;18.306;2023-03-20T17:28:16;13.30;;;5.53;;
42192;SDS011;52467;40.114;18.306;2023-03-20T17:30:49;11.20;;;5.18;;
42192;SDS011;52467;40.114;18.306;2023-03-20T17:33:17;9.40;;;4.53;;
42192;SDS011;52467;40.114;18.306;2023-03-20T17:35:46;7.78;;;4.43;;
42192;SDS011;52467;40.114;18.306;2023-03-20T17:38:15;9.27;;;4.90;;
42192;SDS011;52467;40.114;18.306;2023-03-20T17:40:44;7.63;;;4.80;;
42192;SDS011;52467;40.114;18.306;2023-03-20T17:43:12;12.60;;;4.63;;
42192;SDS011;52467;40.114;18.306;2023-03-20T17:45:40;11.30;;;5.28;;
42192;SDS011;52467;40.114;18.306;2023-03-20T17:48:16;11.02;;;5.40;;
42192;SDS011;52467;40.114;18.306;2023-03-20T17:50:47;12.52;;;5.80;;
42192;SDS011;52467;40.114;18.306;2023-03-20T17:53:22;11.32;;;6.07;;
42192;SDS011;52467;40.114;18.306;2023-03-20T17:55:51;15.65;;;7.03;;
42192;SDS011;52467;40.114;18.306;2023-03-20T17:58:19;12.57;;;6.70;;
42192;SDS011;52467;40.114;18.306;2023-03-20T18:00:49;12.15;;;6.43;;
42192;SDS011;52467;40.114;18.306;2023-03-20T18:03:17;11.20;;;6.37;;
42192;SDS011;52467;40.114;18.306;2023-03-20T18:05:45;11.63;;;6.35;;
42192;SDS011;52467;40.114;18.306;2023-03-20T18:08:18;12.55;;;6.90;;